createdAt,value
2017-10-30T00:02:23.003Z,2.47
2017-10-30T00:04:50.216Z,2.42
2017-10-30T00:07:16.712Z,2.47
2017-10-30T00:09:43.187Z,3.30
2017-10-30T00:12:09.767Z,2.83
2017-10-30T00:14:37.055Z,2.33
2017-10-30T00:17:03.614Z,2.83
2017-10-30T00:19:30.106Z,2.37
2017-10-30T00:21:57.371Z,2.10
2017-10-30T00:24:24.573Z,2.53
2017-10-30T00:26:51.050Z,2.87
2017-10-30T00:29:17.583Z,3.42
2017-10-30T00:31:44.078Z,2.00
2017-10-30T00:34:10.592Z,2.45
2017-10-30T00:36:37.968Z,3.78
2017-10-30T00:39:04.461Z,2.42
2017-10-30T00:41:30.958Z,2.05
2017-10-30T00:43:57.452Z,2.25
2017-10-30T00:46:24.729Z,2.33
2017-10-30T00:48:51.963Z,1.80
2017-10-30T00:51:18.470Z,2.70
2017-10-30T00:53:44.918Z,2.72
2017-10-30T00:56:11.398Z,2.22
2017-10-30T00:58:38.643Z,2.78
2017-10-30T01:01:05.881Z,2.20
2017-10-30T01:03:32.414Z,2.70
2017-10-30T01:05:58.907Z,1.75
2017-10-30T01:08:25.535Z,2.22
2017-10-30T01:10:52.776Z,2.90
2017-10-30T01:13:19.284Z,3.00
2017-10-30T01:15:45.815Z,2.55
2017-10-30T01:18:12.321Z,2.72
2017-10-30T01:20:39.609Z,2.60
2017-10-30T01:23:06.103Z,1.83
2017-10-30T01:25:33.368Z,5.03
2017-10-30T01:28:00.617Z,3.78
2017-10-30T01:30:27.823Z,2.60
2017-10-30T01:32:54.318Z,3.60
2017-10-30T01:35:21.544Z,2.47
2017-10-30T01:37:48.063Z,4.30
2017-10-30T01:40:14.537Z,3.87
2017-10-30T01:42:41.132Z,3.45
2017-10-30T01:45:07.809Z,5.07
2017-10-30T01:47:34.282Z,4.60
2017-10-30T01:50:01.465Z,2.47
2017-10-30T01:52:27.945Z,1.70
2017-10-30T01:54:54.512Z,2.17
2017-10-30T01:57:21.731Z,4.43
2017-10-30T01:59:48.210Z,3.50
2017-10-30T02:02:14.703Z,3.33
2017-10-30T02:04:41.195Z,4.10
2017-10-30T02:07:08.423Z,4.12
2017-10-30T02:09:34.929Z,4.60
2017-10-30T02:12:01.373Z,3.90
2017-10-30T02:14:27.912Z,4.85
2017-10-30T02:16:54.360Z,5.00
2017-10-30T02:19:20.814Z,4.35
2017-10-30T02:21:47.319Z,3.75
2017-10-30T02:24:13.835Z,4.37
2017-10-30T02:26:41.068Z,4.55
2017-10-30T02:29:07.568Z,4.22
2017-10-30T02:31:34.064Z,4.62
2017-10-30T02:34:01.294Z,4.03
2017-10-30T02:36:28.566Z,4.18
2017-10-30T02:38:55.084Z,3.40
2017-10-30T02:41:21.570Z,5.37
2017-10-30T02:43:48.085Z,2.53
2017-10-30T02:46:14.570Z,4.70
2017-10-30T02:48:41.117Z,4.10
2017-10-30T02:51:07.616Z,4.53
2017-10-30T02:53:34.847Z,2.85
2017-10-30T02:56:01.376Z,5.62
2017-10-30T02:58:27.901Z,3.85
2017-10-30T03:00:54.373Z,3.37
2017-10-30T03:03:20.880Z,5.22
2017-10-30T03:05:47.402Z,4.18
2017-10-30T03:08:13.920Z,5.45
2017-10-30T03:10:41.163Z,3.05
2017-10-30T03:13:07.622Z,2.12
2017-10-30T03:15:35.016Z,3.67
2017-10-30T03:18:01.718Z,2.90
2017-10-30T03:20:28.982Z,4.55
2017-10-30T03:22:55.543Z,3.15
2017-10-30T03:25:22.008Z,4.97
2017-10-30T03:27:48.546Z,3.20
2017-10-30T03:30:15.021Z,3.70
2017-10-30T03:32:41.712Z,3.85
2017-10-30T03:35:08.234Z,2.58
2017-10-30T03:37:34.728Z,4.68
2017-10-30T03:40:01.374Z,4.70
2017-10-30T03:42:27.893Z,2.97
2017-10-30T03:44:54.382Z,3.60
2017-10-30T03:47:21.638Z,3.87
2017-10-30T03:49:48.871Z,4.00
2017-10-30T03:52:15.353Z,4.53
2017-10-30T03:54:41.907Z,2.40
2017-10-30T03:57:08.393Z,3.47
2017-10-30T03:59:34.914Z,4.68
2017-10-30T04:02:01.431Z,2.95
2017-10-30T04:04:27.941Z,3.60
2017-10-30T04:06:55.284Z,3.95
2017-10-30T04:09:21.858Z,3.87
2017-10-30T04:11:48.523Z,3.87
2017-10-30T04:14:15.062Z,4.68
2017-10-30T04:16:41.600Z,4.32
2017-10-30T04:19:08.097Z,4.00
2017-10-30T04:21:35.323Z,3.62
2017-10-30T04:24:01.840Z,5.53
2017-10-30T04:26:28.323Z,4.90
2017-10-30T04:28:55.585Z,4.22
2017-10-30T04:31:22.113Z,3.37
2017-10-30T04:33:48.609Z,3.53
2017-10-30T04:36:15.148Z,4.25
2017-10-30T04:38:41.624Z,3.92
2017-10-30T04:41:08.128Z,6.30
2017-10-30T04:43:34.611Z,3.42
2017-10-30T04:46:01.852Z,3.20
2017-10-30T04:48:28.373Z,5.25
2017-10-30T04:50:54.831Z,5.93
2017-10-30T04:53:21.360Z,5.95
2017-10-30T04:55:47.908Z,6.20
2017-10-30T04:58:14.371Z,4.87
2017-10-30T05:00:55.701Z,5.37
2017-10-30T05:03:22.192Z,4.05
2017-10-30T05:05:48.713Z,4.47
2017-10-30T05:08:15.182Z,4.55
2017-10-30T05:10:41.756Z,3.33
2017-10-30T05:13:08.283Z,5.95
2017-10-30T05:15:35.533Z,4.60
2017-10-30T05:18:02.757Z,6.32
2017-10-30T05:20:29.434Z,5.78
2017-10-30T05:22:56.640Z,4.00
2017-10-30T05:25:23.132Z,4.45
2017-10-30T05:27:50.357Z,5.75
2017-10-30T05:30:16.817Z,4.90
2017-10-30T05:32:44.140Z,5.43
2017-10-30T05:35:10.783Z,5.47
2017-10-30T05:37:37.392Z,6.28
2017-10-30T05:40:03.859Z,5.45
2017-10-30T05:42:30.356Z,6.22
2017-10-30T05:44:56.830Z,5.87
2017-10-30T05:47:23.308Z,6.12
2017-10-30T05:49:49.802Z,6.15
2017-10-30T05:52:16.303Z,5.53
2017-10-30T05:54:43.652Z,5.05
2017-10-30T05:57:10.858Z,6.15
2017-10-30T05:59:37.325Z,5.75
2017-10-30T06:02:03.839Z,7.70
2017-10-30T06:04:30.312Z,4.35
2017-10-30T06:06:56.819Z,4.35
2017-10-30T06:09:23.310Z,4.28
2017-10-30T06:11:49.849Z,5.32
2017-10-30T06:14:16.378Z,5.60
2017-10-30T06:16:42.987Z,5.12
2017-10-30T06:19:09.473Z,4.50
2017-10-30T06:21:35.983Z,5.82
2017-10-30T06:24:02.480Z,3.22
2017-10-30T06:26:28.949Z,4.80
2017-10-30T06:28:55.545Z,6.72
2017-10-30T06:31:23.812Z,2.70
2017-10-30T06:33:51.034Z,5.78
2017-10-30T06:36:17.684Z,5.90
2017-10-30T06:38:44.165Z,3.80
2017-10-30T06:41:11.452Z,3.28
2017-10-30T06:43:37.953Z,4.35
2017-10-30T06:46:05.380Z,3.28
2017-10-30T06:48:32.048Z,5.50
2017-10-30T06:50:59.265Z,5.30
2017-10-30T06:53:25.839Z,3.60
2017-10-30T06:55:52.369Z,5.97
2017-10-30T06:58:18.853Z,4.37
2017-10-30T07:00:46.113Z,4.43
2017-10-30T07:03:14.169Z,5.45
2017-10-30T07:05:41.516Z,3.37
2017-10-30T07:08:08.016Z,3.92
2017-10-30T07:10:34.548Z,4.55
2017-10-30T07:13:01.037Z,5.37
2017-10-30T07:15:27.703Z,5.80
2017-10-30T07:17:54.994Z,6.37
2017-10-30T07:20:21.508Z,7.15
2017-10-30T07:22:48.758Z,6.68
2017-10-30T07:25:16.078Z,4.93
2017-10-30T07:27:42.589Z,5.75
2017-10-30T07:30:09.124Z,6.85
2017-10-30T07:32:35.626Z,5.95
2017-10-30T07:35:02.881Z,6.03
2017-10-30T07:37:30.090Z,5.72
2017-10-30T07:39:56.600Z,3.55
2017-10-30T07:42:23.853Z,6.50
2017-10-30T07:44:52.576Z,5.45
2017-10-30T07:47:19.318Z,4.70
2017-10-30T07:49:45.974Z,7.25
2017-10-30T07:52:12.509Z,5.62
2017-10-30T07:54:39.203Z,4.85
2017-10-30T07:57:06.428Z,4.62
2017-10-30T07:59:32.912Z,5.40
2017-10-30T08:02:00.292Z,6.00
2017-10-30T08:04:26.787Z,6.55
2017-10-30T08:06:53.253Z,6.47
2017-10-30T08:09:19.830Z,6.50
2017-10-30T08:11:46.469Z,7.43
2017-10-30T08:14:13.030Z,7.25
2017-10-30T08:16:39.632Z,5.70
2017-10-30T08:19:06.182Z,6.43
2017-10-30T08:21:32.664Z,3.42
2017-10-30T08:23:59.112Z,5.70
2017-10-30T08:26:25.594Z,5.90
2017-10-30T08:28:52.473Z,4.82
2017-10-30T08:31:18.948Z,7.70
2017-10-30T08:33:45.363Z,5.37
2017-10-30T08:36:11.913Z,5.10
2017-10-30T08:38:38.391Z,4.78
2017-10-30T08:41:05.673Z,6.03
2017-10-30T08:43:32.190Z,6.35
2017-10-30T08:45:58.678Z,6.35
2017-10-30T08:48:25.131Z,4.47
2017-10-30T08:50:51.622Z,3.00
2017-10-30T08:53:18.063Z,4.93
2017-10-30T08:55:44.534Z,5.00
2017-10-30T08:58:11.008Z,5.45
2017-10-30T09:00:38.317Z,6.07
2017-10-30T09:03:04.762Z,6.72
2017-10-30T09:05:31.196Z,7.20
2017-10-30T09:07:57.732Z,5.70
2017-10-30T09:10:24.197Z,6.45
2017-10-30T09:12:50.654Z,6.60
2017-10-30T09:15:17.939Z,4.80
2017-10-30T09:17:44.561Z,5.85
2017-10-30T09:20:11.828Z,7.90
2017-10-30T09:22:39.006Z,5.72
2017-10-30T09:25:05.496Z,6.00
2017-10-30T09:27:32.226Z,6.75
2017-10-30T09:29:59.240Z,4.22
2017-10-30T09:32:25.781Z,3.70
2017-10-30T09:34:52.244Z,6.10
2017-10-30T09:37:18.763Z,4.68
2017-10-30T09:39:45.195Z,4.95
2017-10-30T09:42:11.775Z,7.15
2017-10-30T09:44:38.258Z,24.25
2017-10-30T09:47:05.482Z,5.47
2017-10-30T10:39:02.267Z,3.55
2017-10-30T10:41:28.748Z,3.78
2017-10-30T10:43:55.239Z,3.95
2017-10-30T10:46:22.466Z,4.78
2017-10-30T10:48:48.943Z,4.05
2017-10-30T10:51:15.416Z,3.67
2017-10-30T10:53:42.098Z,3.08
2017-10-30T10:56:08.584Z,4.05
2017-10-30T10:58:35.055Z,4.87
2017-10-30T11:01:01.537Z,3.62
2017-10-30T11:03:27.993Z,3.33
2017-10-30T11:05:54.499Z,3.28
2017-10-30T11:08:21.689Z,3.08
2017-10-30T11:10:48.197Z,4.10
2017-10-30T11:13:15.408Z,3.87
2017-10-30T11:15:41.847Z,3.70
2017-10-30T11:18:08.402Z,3.83
2017-10-30T11:20:34.839Z,3.87
2017-10-30T11:23:01.305Z,4.95
2017-10-30T11:25:29.247Z,5.35
2017-10-30T11:27:55.727Z,3.28
2017-10-30T11:30:22.918Z,4.30
2017-10-30T11:32:49.614Z,5.25
2017-10-30T11:35:16.131Z,5.07
2017-10-30T11:37:42.555Z,5.68
2017-10-30T11:40:08.987Z,1.92
2017-10-30T11:42:35.619Z,4.93
2017-10-30T11:45:02.156Z,4.60
2017-10-30T11:47:28.629Z,6.15
2017-10-30T11:49:55.209Z,4.90
2017-10-30T11:52:22.472Z,4.53
2017-10-30T11:54:49.680Z,4.40
2017-10-30T11:57:16.199Z,5.30
2017-10-30T11:59:42.673Z,3.28
2017-10-30T12:02:09.137Z,4.20
2017-10-30T12:04:36.335Z,5.12
2017-10-30T12:07:02.811Z,5.00
2017-10-30T12:09:29.270Z,5.05
2017-10-30T12:11:56.492Z,4.17
2017-10-30T12:14:24.825Z,4.32
2017-10-30T12:16:52.019Z,4.95
2017-10-30T12:19:18.508Z,2.85
2017-10-30T12:21:45.773Z,5.50
2017-10-30T12:24:12.960Z,5.97
2017-10-30T12:26:39.418Z,5.18
2017-10-30T12:29:05.929Z,4.18
2017-10-30T12:31:32.417Z,6.30
2017-10-30T12:33:58.892Z,6.85
2017-10-30T12:36:26.167Z,6.40
2017-10-30T12:38:52.631Z,8.48
2017-10-30T12:41:19.433Z,6.05
2017-10-30T12:43:46.669Z,15.90
2017-10-30T12:46:13.147Z,3.80
2017-10-30T12:48:39.692Z,4.60
2017-10-30T12:51:06.198Z,4.75
2017-10-30T12:53:33.394Z,4.05
2017-10-30T12:55:59.878Z,6.60
2017-10-30T12:58:27.984Z,5.55
2017-10-30T13:00:55.219Z,3.28
2017-10-30T13:03:22.537Z,3.58
2017-10-30T13:05:48.987Z,5.30
2017-10-30T13:08:15.466Z,4.65
2017-10-30T13:10:42.661Z,4.25
2017-10-30T13:13:09.108Z,4.65
2017-10-30T13:15:35.707Z,5.10
2017-10-30T13:18:02.927Z,4.80
2017-10-30T13:20:44.263Z,4.50
2017-10-30T13:23:31.062Z,3.97
2017-10-30T13:25:57.527Z,5.05
2017-10-30T13:28:24.019Z,4.75
2017-10-30T13:30:51.284Z,5.25
2017-10-30T13:33:18.527Z,6.82
2017-10-30T13:35:45.883Z,6.62
2017-10-30T13:38:13.075Z,5.87
2017-10-30T13:40:39.567Z,5.30
2017-10-30T13:43:06.103Z,5.18
2017-10-30T13:45:32.553Z,7.95
2017-10-30T13:47:59.008Z,7.57
2017-10-30T13:50:26.180Z,7.00
2017-10-30T13:52:52.659Z,8.10
2017-10-30T13:55:19.136Z,3.45
2017-10-30T13:57:46.340Z,7.32
2017-10-30T14:00:12.809Z,7.35
2017-10-30T14:02:39.296Z,5.97
2017-10-30T14:05:06.338Z,5.62
2017-10-30T14:07:32.856Z,8.13
2017-10-30T14:10:00.272Z,8.60
2017-10-30T14:12:26.804Z,5.07
2017-10-30T14:14:53.287Z,8.80
2017-10-30T14:17:19.755Z,7.50
2017-10-30T14:19:46.966Z,11.80
2017-10-30T14:22:13.449Z,8.60
2017-10-30T14:24:40.641Z,9.15
2017-10-30T14:27:07.147Z,7.87
2017-10-30T14:29:35.268Z,9.17
2017-10-30T14:32:01.680Z,5.80
2017-10-30T14:34:28.169Z,6.28
2017-10-30T14:36:56.339Z,6.25
2017-10-30T14:39:22.799Z,5.70
2017-10-30T14:41:50.087Z,5.75
2017-10-30T14:44:16.589Z,6.70
2017-10-30T14:46:43.121Z,5.35
2017-10-30T14:49:09.639Z,4.03
2017-10-30T14:51:36.079Z,5.30
2017-10-30T14:54:02.539Z,5.60
2017-10-30T14:56:29.844Z,5.78
2017-10-30T14:58:56.281Z,5.57
2017-10-30T15:01:22.779Z,6.55
2017-10-30T15:03:49.648Z,5.75
2017-10-30T15:06:16.845Z,5.47
2017-10-30T15:08:43.366Z,5.80
2017-10-30T15:11:09.907Z,5.30
2017-10-30T15:13:36.493Z,5.95
2017-10-30T15:16:02.999Z,5.97
2017-10-30T15:18:29.631Z,8.18
2017-10-30T15:20:56.139Z,6.55
2017-10-30T15:23:23.333Z,7.90
2017-10-30T15:26:00.191Z,4.93
2017-10-30T15:28:27.589Z,5.30
2017-10-30T15:30:54.070Z,4.37
2017-10-30T15:33:20.583Z,4.35
2017-10-30T15:35:48.221Z,6.15
2017-10-30T15:38:15.204Z,8.07
2017-10-30T15:40:42.042Z,6.20
2017-10-30T15:43:08.558Z,6.97
2017-10-30T15:45:35.026Z,7.32
2017-10-30T15:48:01.777Z,6.68
2017-10-30T15:50:28.540Z,6.00
2017-10-30T15:53:02.813Z,7.82
2017-10-30T15:55:30.211Z,7.03
2017-10-30T15:57:56.677Z,7.47
2017-10-30T16:00:24.074Z,7.80
2017-10-30T16:02:51.537Z,9.10
2017-10-30T16:05:18.381Z,6.53
2017-10-30T16:07:45.115Z,10.85
2017-10-30T16:10:11.629Z,11.55
2017-10-30T16:12:38.853Z,12.02
2017-10-30T16:15:06.866Z,13.32
2017-10-30T16:17:33.428Z,12.85
2017-10-30T16:20:00.016Z,11.80
2017-10-30T16:22:26.540Z,12.55
2017-10-30T16:24:52.995Z,10.98
2017-10-30T16:27:19.634Z,9.05
2017-10-30T16:29:47.165Z,12.70
2017-10-30T16:32:15.616Z,10.55
2017-10-30T16:34:42.908Z,8.05
2017-10-30T16:37:10.527Z,13.00
2017-10-30T16:39:37.631Z,17.67
2017-10-30T16:42:05.085Z,35.13
2017-10-30T16:44:32.777Z,14.15
2017-10-30T16:47:00.066Z,17.52
2017-10-30T16:49:28.294Z,19.65
2017-10-30T16:51:54.791Z,16.73
2017-10-30T16:54:22.299Z,17.52
2017-10-30T16:56:49.759Z,13.10
2017-10-30T16:59:17.933Z,15.48
2017-10-30T17:01:45.397Z,15.32
2017-10-30T17:04:12.920Z,12.90
2017-10-30T17:06:41.533Z,12.80
2017-10-30T17:09:09.015Z,14.13
2017-10-30T17:11:35.674Z,13.93
2017-10-30T17:14:02.149Z,13.27
2017-10-30T17:16:28.663Z,13.18
2017-10-30T17:18:56.097Z,14.90
2017-10-30T17:21:22.944Z,13.73
2017-10-30T17:23:50.298Z,18.87
2017-10-30T17:26:17.546Z,15.10
2017-10-30T17:28:44.080Z,16.00
2017-10-30T17:31:11.316Z,16.08
2017-10-30T17:33:38.617Z,10.55
2017-10-30T17:36:05.088Z,12.43
2017-10-30T17:38:31.758Z,11.05
2017-10-30T17:40:58.264Z,9.73
2017-10-30T17:43:24.731Z,9.80
2017-10-30T17:45:51.268Z,9.98
2017-10-30T17:48:17.703Z,10.18
2017-10-30T17:50:44.309Z,10.50
2017-10-30T17:53:10.807Z,10.48
2017-10-30T17:55:38.030Z,10.02
2017-10-30T17:58:04.580Z,11.15
2017-10-30T18:00:31.047Z,9.82
2017-10-30T18:02:58.231Z,9.15
2017-10-30T18:05:24.705Z,10.07
2017-10-30T18:07:51.176Z,8.85
2017-10-30T18:10:18.414Z,8.70
2017-10-30T18:12:44.886Z,8.55
2017-10-30T18:15:12.224Z,9.82
2017-10-30T18:17:40.446Z,8.20
2017-10-30T18:20:06.922Z,10.18
2017-10-30T18:22:33.445Z,9.15
2017-10-30T18:24:59.871Z,14.77
2017-10-30T18:27:26.345Z,11.52
2017-10-30T18:29:52.796Z,11.50
2017-10-30T18:32:19.287Z,9.50
2017-10-30T18:34:45.803Z,9.05
2017-10-30T18:37:13.193Z,8.77
2017-10-30T18:39:39.776Z,8.55
2017-10-30T18:42:07.264Z,9.20
2017-10-30T18:44:33.857Z,9.73
2017-10-30T18:47:00.372Z,8.43
2017-10-30T18:49:26.868Z,12.43
2017-10-30T18:51:54.075Z,11.27
2017-10-30T18:54:20.586Z,12.60
2017-10-30T18:56:47.852Z,10.23
2017-10-30T18:59:14.418Z,9.85
2017-10-30T19:01:40.952Z,10.43
2017-10-30T19:04:07.411Z,9.82
2017-10-30T19:06:33.900Z,9.88
2017-10-30T19:09:01.105Z,9.05
2017-10-30T19:11:27.624Z,8.27
2017-10-30T19:13:54.084Z,9.65
2017-10-30T19:16:34.106Z,10.30
2017-10-30T19:19:00.623Z,10.70
2017-10-30T19:21:27.841Z,8.90
2017-10-30T19:23:54.325Z,9.20
2017-10-30T19:26:21.536Z,9.93
2017-10-30T19:28:48.025Z,9.07
2017-10-30T19:31:14.472Z,8.80
2017-10-30T19:33:40.960Z,8.73
2017-10-30T19:36:07.463Z,10.52
2017-10-30T19:38:33.963Z,9.38
2017-10-30T19:41:00.451Z,11.25
2017-10-30T19:43:26.992Z,12.48
2017-10-30T19:45:53.464Z,13.23
2017-10-30T19:48:19.933Z,10.73
2017-10-30T19:50:47.334Z,10.20
2017-10-30T19:53:13.829Z,11.77
2017-10-30T19:55:41.123Z,11.70
2017-10-30T19:58:07.684Z,10.18
2017-10-30T20:00:34.190Z,12.95
2017-10-30T20:03:00.706Z,11.60
2017-10-30T20:05:33.807Z,11.98
2017-10-30T20:08:00.294Z,10.85
2017-10-30T20:10:32.617Z,10.65
2017-10-30T20:12:59.841Z,11.90
2017-10-30T20:15:26.312Z,12.73
2017-10-30T20:17:53.536Z,12.52
2017-10-30T20:20:20.196Z,13.20
2017-10-30T20:22:48.546Z,15.00
2017-10-30T20:25:15.076Z,17.98
2017-10-30T20:27:41.585Z,14.10
2017-10-30T20:30:08.828Z,13.93
2017-10-30T20:32:36.084Z,13.32
2017-10-30T20:35:03.385Z,13.45
2017-10-30T20:37:29.845Z,11.90
2017-10-30T20:39:56.363Z,13.23
2017-10-30T20:42:22.804Z,13.32
2017-10-30T20:44:49.437Z,13.85
2017-10-30T20:47:15.993Z,13.93
2017-10-30T20:49:42.520Z,12.90
2017-10-30T20:52:08.997Z,12.77
2017-10-30T20:54:35.526Z,13.23
2017-10-30T20:57:02.034Z,11.15
2017-10-30T20:59:28.526Z,13.75
2017-10-30T21:01:54.997Z,13.95
2017-10-30T21:04:22.211Z,13.32
2017-10-30T21:06:48.667Z,15.50
2017-10-30T21:09:17.081Z,14.02
2017-10-30T21:11:43.578Z,12.73
2017-10-30T21:14:10.076Z,12.50
2017-10-30T21:16:36.571Z,13.70
2017-10-30T21:19:04.384Z,14.63
2017-10-30T21:21:30.874Z,15.50
2017-10-30T21:23:57.369Z,14.15
2017-10-30T21:26:23.865Z,14.07
2017-10-30T21:28:50.350Z,13.68
2017-10-30T21:31:16.813Z,15.55
2017-10-30T21:33:43.247Z,13.52
2017-10-30T21:36:09.803Z,14.63
2017-10-30T21:38:36.443Z,11.40
2017-10-30T21:41:02.938Z,11.75
2017-10-30T21:43:29.404Z,11.50
2017-10-30T21:45:55.876Z,12.50
2017-10-30T21:48:22.524Z,13.93
2017-10-30T21:50:49.807Z,13.60
2017-10-30T21:53:17.093Z,14.95
2017-10-30T21:55:43.616Z,14.75
2017-10-30T21:58:10.152Z,15.10
2017-10-30T22:00:36.605Z,14.00
2017-10-30T22:03:03.060Z,13.80
2017-10-30T22:05:29.592Z,13.30
2017-10-30T22:07:56.095Z,13.25
2017-10-30T22:10:23.547Z,13.68
2017-10-30T22:12:50.201Z,13.62
2017-10-30T22:15:17.448Z,14.27
2017-10-30T22:17:48.765Z,13.70
2017-10-30T22:20:15.266Z,12.82
2017-10-30T22:22:41.840Z,13.52
2017-10-30T22:25:08.359Z,15.45
2017-10-30T22:27:35.079Z,16.15
2017-10-30T22:30:02.284Z,16.40
2017-10-30T22:32:28.749Z,15.85
2017-10-30T22:34:56.240Z,16.12
2017-10-30T22:37:23.493Z,23.98
2017-10-30T22:39:50.728Z,19.35
2017-10-30T22:42:17.654Z,23.23
2017-10-30T22:44:44.289Z,13.55
2017-10-30T22:47:11.075Z,15.20
2017-10-30T22:49:37.651Z,16.17
2017-10-30T22:52:04.157Z,13.05
2017-10-30T22:54:31.524Z,13.20
2017-10-30T22:56:58.812Z,15.27
2017-10-30T22:59:25.322Z,15.38
2017-10-30T23:01:52.553Z,14.80
2017-10-30T23:04:19.057Z,17.85
2017-10-30T23:06:45.609Z,19.87
2017-10-30T23:09:12.493Z,17.25
2017-10-30T23:11:38.969Z,16.35
2017-10-30T23:14:06.681Z,16.08
2017-10-30T23:16:33.182Z,14.45
2017-10-30T23:18:59.644Z,14.43
2017-10-30T23:21:32.645Z,16.23
2017-10-30T23:23:59.260Z,16.62
2017-10-30T23:26:25.822Z,14.75
2017-10-30T23:28:52.319Z,15.93
2017-10-30T23:31:24.091Z,15.65
2017-10-30T23:33:50.564Z,14.05
2017-10-30T23:36:17.046Z,15.45
2017-10-30T23:38:44.293Z,17.52
2017-10-30T23:41:11.567Z,18.87
2017-10-30T23:43:38.805Z,18.73
2017-10-30T23:46:05.268Z,19.25
2017-10-30T23:48:31.760Z,20.83
2017-10-30T23:50:58.237Z,18.33
2017-10-30T23:53:25.518Z,15.50
2017-10-30T23:55:52.188Z,14.15
2017-10-30T23:58:18.698Z,15.10
